sensor_id;sensor_type;location;lat;lon;timestamp;P1;durP1;ratioP1;P2;durP2;ratioP2
23588;SDS011;11972;48.078;11.876;2022-07-09T00:03:37;2.42;;;1.70;;
23588;SDS011;11972;48.078;11.876;2022-07-09T00:07:38;2.08;;;1.45;;
23588;SDS011;11972;48.078;11.876;2022-07-09T00:11:38;2.30;;;1.58;;
23588;SDS011;11972;48.078;11.876;2022-07-09T00:15:38;2.35;;;1.50;;
23588;SDS011;11972;48.078;11.876;2022-07-09T00:19:39;3.28;;;1.80;;
23588;SDS011;11972;48.078;11.876;2022-07-09T00:23:39;4.47;;;2.45;;
23588;SDS011;11972;48.078;11.876;2022-07-09T00:27:39;4.05;;;2.10;;
23588;SDS011;11972;48.078;11.876;2022-07-09T00:31:40;3.58;;;2.20;;
23588;SDS011;11972;48.078;11.876;2022-07-09T00:35:40;4.00;;;1.95;;
23588;SDS011;11972;48.078;11.876;2022-07-09T00:39:41;4.43;;;2.90;;
23588;SDS011;11972;48.078;11.876;2022-07-09T00:43:48;3.80;;;3.40;;
23588;SDS011;11972;48.078;11.876;2022-07-09T00:47:49;6.25;;;2.80;;
23588;SDS011;11972;48.078;11.876;2022-07-09T00:51:49;3.10;;;2.80;;
23588;SDS011;11972;48.078;11.876;2022-07-09T00:55:50;4.43;;;3.03;;
23588;SDS011;11972;48.078;11.876;2022-07-09T00:59:51;3.08;;;2.22;;
23588;SDS011;11972;48.078;11.876;2022-07-09T01:03:52;2.30;;;1.63;;
23588;SDS011;11972;48.078;11.876;2022-07-09T01:07:52;2.97;;;2.35;;
23588;SDS011;11972;48.078;11.876;2022-07-09T01:11:53;4.38;;;2.70;;
23588;SDS011;11972;48.078;11.876;2022-07-09T01:15:54;2.10;;;1.90;;
23588;SDS011;11972;48.078;11.876;2022-07-09T01:19:54;3.33;;;1.77;;
23588;SDS011;11972;48.078;11.876;2022-07-09T01:23:54;2.15;;;1.65;;
23588;SDS011;11972;48.078;11.876;2022-07-09T01:27:55;3.10;;;1.90;;
23588;SDS011;11972;48.078;11.876;2022-07-09T01:31:55;2.85;;;1.70;;
23588;SDS011;11972;48.078;11.876;2022-07-09T01:35:55;2.38;;;1.50;;
23588;SDS011;11972;48.078;11.876;2022-07-09T01:39:56;1.63;;;1.50;;
23588;SDS011;11972;48.078;11.876;2022-07-09T01:43:56;2.47;;;1.48;;
23588;SDS011;11972;48.078;11.876;2022-07-09T01:47:57;2.85;;;1.38;;
23588;SDS011;11972;48.078;11.876;2022-07-09T01:51:57;1.67;;;1.17;;
23588;SDS011;11972;48.078;11.876;2022-07-09T01:55:58;2.88;;;1.20;;
23588;SDS011;11972;48.078;11.876;2022-07-09T01:59:58;1.77;;;1.15;;
23588;SDS011;11972;48.078;11.876;2022-07-09T02:03:58;3.30;;;1.50;;
23588;SDS011;11972;48.078;11.876;2022-07-09T02:07:58;6.03;;;1.53;;
23588;SDS011;11972;48.078;11.876;2022-07-09T02:11:59;2.88;;;1.90;;
23588;SDS011;11972;48.078;11.876;2022-07-09T02:15:59;4.47;;;1.67;;
23588;SDS011;11972;48.078;11.876;2022-07-09T02:20:01;3.13;;;1.42;;
23588;SDS011;11972;48.078;11.876;2022-07-09T02:24:01;4.75;;;1.83;;
23588;SDS011;11972;48.078;11.876;2022-07-09T02:28:02;2.03;;;1.33;;
23588;SDS011;11972;48.078;11.876;2022-07-09T02:32:02;5.18;;;1.30;;
23588;SDS011;11972;48.078;11.876;2022-07-09T02:36:03;5.00;;;1.30;;
23588;SDS011;11972;48.078;11.876;2022-07-09T02:40:04;1.50;;;1.40;;
23588;SDS011;11972;48.078;11.876;2022-07-09T02:44:05;1.98;;;1.10;;
23588;SDS011;11972;48.078;11.876;2022-07-09T02:48:06;3.03;;;1.67;;
23588;SDS011;11972;48.078;11.876;2022-07-09T02:52:06;2.00;;;1.20;;
23588;SDS011;11972;48.078;11.876;2022-07-09T02:56:06;2.35;;;1.33;;
23588;SDS011;11972;48.078;11.876;2022-07-09T03:00:07;1.85;;;1.30;;
23588;SDS011;11972;48.078;11.876;2022-07-09T03:04:08;3.05;;;1.38;;
23588;SDS011;11972;48.078;11.876;2022-07-09T03:08:08;1.77;;;1.27;;
23588;SDS011;11972;48.078;11.876;2022-07-09T03:12:09;2.72;;;1.35;;
23588;SDS011;11972;48.078;11.876;2022-07-09T03:16:09;6.28;;;1.52;;
23588;SDS011;11972;48.078;11.876;2022-07-09T03:20:10;2.83;;;1.30;;
23588;SDS011;11972;48.078;11.876;2022-07-09T03:24:10;4.03;;;1.30;;
23588;SDS011;11972;48.078;11.876;2022-07-09T03:28:12;2.90;;;1.27;;
23588;SDS011;11972;48.078;11.876;2022-07-09T03:32:12;1.75;;;1.00;;
23588;SDS011;11972;48.078;11.876;2022-07-09T03:36:12;1.53;;;1.03;;
23588;SDS011;11972;48.078;11.876;2022-07-09T03:40:13;3.22;;;1.30;;
23588;SDS011;11972;48.078;11.876;2022-07-09T03:44:13;4.55;;;1.40;;
23588;SDS011;11972;48.078;11.876;2022-07-09T03:48:14;2.25;;;1.25;;
23588;SDS011;11972;48.078;11.876;2022-07-09T03:52:14;1.63;;;1.10;;
23588;SDS011;11972;48.078;11.876;2022-07-09T03:56:15;2.58;;;1.02;;
23588;SDS011;11972;48.078;11.876;2022-07-09T04:00:15;2.03;;;1.05;;
23588;SDS011;11972;48.078;11.876;2022-07-09T04:04:16;1.85;;;1.08;;
23588;SDS011;11972;48.078;11.876;2022-07-09T04:08:16;1.55;;;0.90;;
23588;SDS011;11972;48.078;11.876;2022-07-09T04:12:16;2.03;;;1.00;;
23588;SDS011;11972;48.078;11.876;2022-07-09T04:16:17;2.22;;;1.20;;
23588;SDS011;11972;48.078;11.876;2022-07-09T04:20:17;3.10;;;0.85;;
23588;SDS011;11972;48.078;11.876;2022-07-09T04:24:18;3.83;;;1.60;;
23588;SDS011;11972;48.078;11.876;2022-07-09T04:28:18;2.03;;;1.33;;
23588;SDS011;11972;48.078;11.876;2022-07-09T04:32:19;2.33;;;1.13;;
23588;SDS011;11972;48.078;11.876;2022-07-09T04:36:19;2.17;;;0.85;;
23588;SDS011;11972;48.078;11.876;2022-07-09T04:40:20;2.35;;;1.02;;
23588;SDS011;11972;48.078;11.876;2022-07-09T04:44:20;2.20;;;0.80;;
23588;SDS011;11972;48.078;11.876;2022-07-09T04:48:20;1.42;;;0.90;;
23588;SDS011;11972;48.078;11.876;2022-07-09T04:52:20;3.45;;;1.00;;
23588;SDS011;11972;48.078;11.876;2022-07-09T04:56:21;2.97;;;0.93;;
23588;SDS011;11972;48.078;11.876;2022-07-09T05:00:22;1.20;;;0.90;;
23588;SDS011;11972;48.078;11.876;2022-07-09T05:04:22;2.45;;;0.93;;
23588;SDS011;11972;48.078;11.876;2022-07-09T05:08:22;1.77;;;0.93;;
23588;SDS011;11972;48.078;11.876;2022-07-09T05:12:23;1.83;;;0.97;;
23588;SDS011;11972;48.078;11.876;2022-07-09T05:16:23;2.80;;;1.00;;
23588;SDS011;11972;48.078;11.876;2022-07-09T05:20:23;1.20;;;0.90;;
23588;SDS011;11972;48.078;11.876;2022-07-09T05:24:24;1.70;;;0.68;;
23588;SDS011;11972;48.078;11.876;2022-07-09T05:28:24;2.07;;;1.43;;
23588;SDS011;11972;48.078;11.876;2022-07-09T05:32:25;3.25;;;0.73;;
23588;SDS011;11972;48.078;11.876;2022-07-09T05:36:25;1.92;;;0.85;;
23588;SDS011;11972;48.078;11.876;2022-07-09T05:40:28;3.65;;;1.30;;
23588;SDS011;11972;48.078;11.876;2022-07-09T05:44:29;4.13;;;1.40;;
23588;SDS011;11972;48.078;11.876;2022-07-09T05:48:29;1.87;;;0.93;;
23588;SDS011;11972;48.078;11.876;2022-07-09T05:52:29;4.30;;;1.00;;
23588;SDS011;11972;48.078;11.876;2022-07-09T05:56:30;1.35;;;0.73;;
23588;SDS011;11972;48.078;11.876;2022-07-09T06:00:30;2.30;;;1.00;;
23588;SDS011;11972;48.078;11.876;2022-07-09T06:04:31;2.42;;;0.80;;
23588;SDS011;11972;48.078;11.876;2022-07-09T06:08:31;1.88;;;0.80;;
23588;SDS011;11972;48.078;11.876;2022-07-09T06:12:33;2.97;;;1.00;;
23588;SDS011;11972;48.078;11.876;2022-07-09T06:16:35;3.60;;;0.70;;
23588;SDS011;11972;48.078;11.876;2022-07-09T06:20:35;1.52;;;0.77;;
23588;SDS011;11972;48.078;11.876;2022-07-09T06:24:36;2.60;;;0.80;;
23588;SDS011;11972;48.078;11.876;2022-07-09T06:28:37;4.93;;;1.07;;
23588;SDS011;11972;48.078;11.876;2022-07-09T06:32:37;1.30;;;0.80;;
23588;SDS011;11972;48.078;11.876;2022-07-09T06:36:38;1.87;;;0.60;;
23588;SDS011;11972;48.078;11.876;2022-07-09T06:40:40;3.53;;;0.93;;
23588;SDS011;11972;48.078;11.876;2022-07-09T06:44:40;1.65;;;0.80;;
23588;SDS011;11972;48.078;11.876;2022-07-09T06:48:41;1.65;;;0.73;;
23588;SDS011;11972;48.078;11.876;2022-07-09T06:52:41;1.67;;;0.87;;
23588;SDS011;11972;48.078;11.876;2022-07-09T06:56:41;2.13;;;0.73;;
23588;SDS011;11972;48.078;11.876;2022-07-09T07:00:42;2.67;;;0.90;;
23588;SDS011;11972;48.078;11.876;2022-07-09T07:04:42;3.47;;;1.00;;
23588;SDS011;11972;48.078;11.876;2022-07-09T07:08:42;4.28;;;1.05;;
23588;SDS011;11972;48.078;11.876;2022-07-09T07:12:42;2.13;;;0.97;;
23588;SDS011;11972;48.078;11.876;2022-07-09T07:16:43;5.47;;;1.43;;
23588;SDS011;11972;48.078;11.876;2022-07-09T07:20:44;2.35;;;1.00;;
23588;SDS011;11972;48.078;11.876;2022-07-09T07:24:45;1.63;;;0.90;;
23588;SDS011;11972;48.078;11.876;2022-07-09T07:28:45;2.90;;;0.93;;
23588;SDS011;11972;48.078;11.876;2022-07-09T07:32:45;2.60;;;0.90;;
23588;SDS011;11972;48.078;11.876;2022-07-09T07:36:46;3.33;;;1.00;;
23588;SDS011;11972;48.078;11.876;2022-07-09T07:40:46;1.92;;;1.00;;
23588;SDS011;11972;48.078;11.876;2022-07-09T07:44:46;3.77;;;0.80;;
23588;SDS011;11972;48.078;11.876;2022-07-09T07:48:47;2.20;;;0.70;;
23588;SDS011;11972;48.078;11.876;2022-07-09T07:52:47;2.63;;;0.95;;
23588;SDS011;11972;48.078;11.876;2022-07-09T07:56:47;1.70;;;0.70;;
23588;SDS011;11972;48.078;11.876;2022-07-09T08:00:50;3.45;;;0.90;;
23588;SDS011;11972;48.078;11.876;2022-07-09T08:04:50;1.23;;;0.77;;
23588;SDS011;11972;48.078;11.876;2022-07-09T08:08:50;3.63;;;0.90;;
23588;SDS011;11972;48.078;11.876;2022-07-09T08:12:50;3.50;;;1.00;;
23588;SDS011;11972;48.078;11.876;2022-07-09T08:16:51;2.55;;;0.90;;
23588;SDS011;11972;48.078;11.876;2022-07-09T08:20:51;1.70;;;0.90;;
23588;SDS011;11972;48.078;11.876;2022-07-09T08:24:52;2.60;;;0.70;;
23588;SDS011;11972;48.078;11.876;2022-07-09T08:28:52;2.92;;;0.93;;
23588;SDS011;11972;48.078;11.876;2022-07-09T08:32:56;2.97;;;1.40;;
23588;SDS011;11972;48.078;11.876;2022-07-09T08:36:57;1.52;;;0.85;;
23588;SDS011;11972;48.078;11.876;2022-07-09T08:40:57;2.63;;;1.10;;
23588;SDS011;11972;48.078;11.876;2022-07-09T08:45:00;3.05;;;1.17;;
23588;SDS011;11972;48.078;11.876;2022-07-09T08:49:01;2.30;;;0.85;;
23588;SDS011;11972;48.078;11.876;2022-07-09T08:53:03;2.38;;;1.17;;
23588;SDS011;11972;48.078;11.876;2022-07-09T08:57:05;3.67;;;1.05;;
23588;SDS011;11972;48.078;11.876;2022-07-09T09:01:06;2.58;;;1.30;;
23588;SDS011;11972;48.078;11.876;2022-07-09T09:05:14;3.97;;;0.90;;
23588;SDS011;11972;48.078;11.876;2022-07-09T09:09:18;4.32;;;0.90;;
23588;SDS011;11972;48.078;11.876;2022-07-09T09:13:19;3.20;;;1.10;;
23588;SDS011;11972;48.078;11.876;2022-07-09T09:17:19;3.67;;;0.83;;
23588;SDS011;11972;48.078;11.876;2022-07-09T09:21:20;3.65;;;0.93;;
23588;SDS011;11972;48.078;11.876;2022-07-09T09:25:26;4.43;;;1.13;;
23588;SDS011;11972;48.078;11.876;2022-07-09T09:29:27;2.00;;;0.77;;
23588;SDS011;11972;48.078;11.876;2022-07-09T09:33:28;3.42;;;1.00;;
23588;SDS011;11972;48.078;11.876;2022-07-09T09:37:29;2.40;;;0.95;;
23588;SDS011;11972;48.078;11.876;2022-07-09T09:41:29;2.45;;;0.82;;
23588;SDS011;11972;48.078;11.876;2022-07-09T09:45:32;3.08;;;0.90;;
23588;SDS011;11972;48.078;11.876;2022-07-09T09:49:37;1.20;;;0.60;;
23588;SDS011;11972;48.078;11.876;2022-07-09T09:53:47;2.65;;;1.05;;
23588;SDS011;11972;48.078;11.876;2022-07-09T09:57:49;2.97;;;0.70;;
23588;SDS011;11972;48.078;11.876;2022-07-09T10:01:50;2.95;;;0.70;;
23588;SDS011;11972;48.078;11.876;2022-07-09T10:05:52;1.25;;;0.50;;
23588;SDS011;11972;48.078;11.876;2022-07-09T10:09:58;2.90;;;0.70;;
23588;SDS011;11972;48.078;11.876;2022-07-09T10:14:14;1.60;;;0.57;;
23588;SDS011;11972;48.078;11.876;2022-07-09T10:18:37;2.83;;;0.60;;
23588;SDS011;11972;48.078;11.876;2022-07-09T10:22:49;1.73;;;0.70;;
23588;SDS011;11972;48.078;11.876;2022-07-09T10:26:51;1.83;;;0.70;;
23588;SDS011;11972;48.078;11.876;2022-07-09T10:30:51;1.00;;;0.60;;
23588;SDS011;11972;48.078;11.876;2022-07-09T10:34:57;1.73;;;0.80;;
23588;SDS011;11972;48.078;11.876;2022-07-09T10:38:59;0.75;;;0.50;;
23588;SDS011;11972;48.078;11.876;2022-07-09T10:43:01;1.10;;;0.55;;
23588;SDS011;11972;48.078;11.876;2022-07-09T10:47:04;2.35;;;0.60;;
23588;SDS011;11972;48.078;11.876;2022-07-09T10:51:08;1.63;;;1.00;;
23588;SDS011;11972;48.078;11.876;2022-07-09T10:55:20;1.52;;;0.57;;
23588;SDS011;11972;48.078;11.876;2022-07-09T10:59:22;2.05;;;0.70;;
23588;SDS011;11972;48.078;11.876;2022-07-09T11:03:28;3.45;;;0.70;;
23588;SDS011;11972;48.078;11.876;2022-07-09T11:07:31;2.42;;;0.65;;
23588;SDS011;11972;48.078;11.876;2022-07-09T11:11:36;3.42;;;0.63;;
23588;SDS011;11972;48.078;11.876;2022-07-09T11:15:48;2.28;;;0.93;;
23588;SDS011;11972;48.078;11.876;2022-07-09T11:19:48;2.10;;;1.07;;
23588;SDS011;11972;48.078;11.876;2022-07-09T11:23:49;1.63;;;0.60;;
23588;SDS011;11972;48.078;11.876;2022-07-09T11:27:58;2.80;;;0.63;;
23588;SDS011;11972;48.078;11.876;2022-07-09T11:32:09;3.58;;;0.70;;
23588;SDS011;11972;48.078;11.876;2022-07-09T11:36:45;1.55;;;0.60;;
23588;SDS011;11972;48.078;11.876;2022-07-09T11:40:58;1.85;;;0.68;;
23588;SDS011;11972;48.078;11.876;2022-07-09T11:45:00;2.17;;;0.50;;
23588;SDS011;11972;48.078;11.876;2022-07-09T11:49:13;1.33;;;0.60;;
23588;SDS011;11972;48.078;11.876;2022-07-09T11:53:21;4.55;;;0.80;;
23588;SDS011;11972;48.078;11.876;2022-07-09T11:57:22;2.25;;;1.02;;
23588;SDS011;11972;48.078;11.876;2022-07-09T12:01:23;2.00;;;0.68;;
23588;SDS011;11972;48.078;11.876;2022-07-09T12:05:34;2.33;;;0.80;;
23588;SDS011;11972;48.078;11.876;2022-07-09T12:09:39;1.77;;;0.65;;
23588;SDS011;11972;48.078;11.876;2022-07-09T12:13:39;2.43;;;0.70;;
23588;SDS011;11972;48.078;11.876;2022-07-09T12:17:40;2.37;;;0.93;;
23588;SDS011;11972;48.078;11.876;2022-07-09T12:21:40;3.63;;;0.80;;
23588;SDS011;11972;48.078;11.876;2022-07-09T12:25:40;3.90;;;0.90;;
23588;SDS011;11972;48.078;11.876;2022-07-09T12:29:41;1.75;;;0.70;;
23588;SDS011;11972;48.078;11.876;2022-07-09T12:33:41;9.88;;;4.05;;
23588;SDS011;11972;48.078;11.876;2022-07-09T12:37:42;5.57;;;2.88;;
23588;SDS011;11972;48.078;11.876;2022-07-09T12:41:42;3.65;;;1.02;;
23588;SDS011;11972;48.078;11.876;2022-07-09T12:45:43;2.40;;;0.57;;
23588;SDS011;11972;48.078;11.876;2022-07-09T12:49:43;2.17;;;1.10;;
23588;SDS011;11972;48.078;11.876;2022-07-09T12:53:43;2.28;;;0.73;;
23588;SDS011;11972;48.078;11.876;2022-07-09T12:57:44;2.43;;;0.90;;
23588;SDS011;11972;48.078;11.876;2022-07-09T13:01:44;1.57;;;0.63;;
23588;SDS011;11972;48.078;11.876;2022-07-09T13:05:44;1.83;;;0.70;;
23588;SDS011;11972;48.078;11.876;2022-07-09T13:09:45;2.87;;;0.70;;
23588;SDS011;11972;48.078;11.876;2022-07-09T13:13:45;1.55;;;0.90;;
23588;SDS011;11972;48.078;11.876;2022-07-09T13:17:49;1.65;;;0.70;;
23588;SDS011;11972;48.078;11.876;2022-07-09T13:21:50;2.08;;;0.75;;
23588;SDS011;11972;48.078;11.876;2022-07-09T13:25:50;1.43;;;0.70;;
23588;SDS011;11972;48.078;11.876;2022-07-09T13:29:50;4.03;;;0.80;;
23588;SDS011;11972;48.078;11.876;2022-07-09T13:33:52;0.82;;;0.70;;
23588;SDS011;11972;48.078;11.876;2022-07-09T13:37:52;1.00;;;0.70;;
23588;SDS011;11972;48.078;11.876;2022-07-09T13:41:54;2.72;;;0.98;;
23588;SDS011;11972;48.078;11.876;2022-07-09T13:45:54;1.10;;;0.60;;
23588;SDS011;11972;48.078;11.876;2022-07-09T13:49:56;1.10;;;0.60;;
23588;SDS011;11972;48.078;11.876;2022-07-09T13:53:56;1.80;;;0.60;;
23588;SDS011;11972;48.078;11.876;2022-07-09T13:57:56;2.60;;;0.70;;
23588;SDS011;11972;48.078;11.876;2022-07-09T14:01:57;2.07;;;0.70;;
23588;SDS011;11972;48.078;11.876;2022-07-09T14:05:57;3.00;;;0.80;;
23588;SDS011;11972;48.078;11.876;2022-07-09T14:09:57;1.03;;;0.57;;
23588;SDS011;11972;48.078;11.876;2022-07-09T14:13:58;1.25;;;0.65;;
23588;SDS011;11972;48.078;11.876;2022-07-09T14:18:00;2.92;;;1.00;;
23588;SDS011;11972;48.078;11.876;2022-07-09T14:22:00;2.05;;;0.63;;
23588;SDS011;11972;48.078;11.876;2022-07-09T14:26:01;1.98;;;0.63;;
23588;SDS011;11972;48.078;11.876;2022-07-09T14:30:01;2.70;;;0.68;;
23588;SDS011;11972;48.078;11.876;2022-07-09T14:34:02;1.92;;;0.73;;
23588;SDS011;11972;48.078;11.876;2022-07-09T14:38:02;1.40;;;0.60;;
23588;SDS011;11972;48.078;11.876;2022-07-09T14:42:03;1.47;;;0.70;;
23588;SDS011;11972;48.078;11.876;2022-07-09T14:46:03;2.83;;;0.60;;
23588;SDS011;11972;48.078;11.876;2022-07-09T14:50:04;3.70;;;0.70;;
23588;SDS011;11972;48.078;11.876;2022-07-09T14:54:05;1.98;;;0.70;;
23588;SDS011;11972;48.078;11.876;2022-07-09T14:58:06;1.90;;;0.50;;
23588;SDS011;11972;48.078;11.876;2022-07-09T15:02:06;1.93;;;0.50;;
23588;SDS011;11972;48.078;11.876;2022-07-09T15:06:06;0.93;;;0.50;;
23588;SDS011;11972;48.078;11.876;2022-07-09T15:10:07;1.13;;;0.50;;
23588;SDS011;11972;48.078;11.876;2022-07-09T15:14:07;5.78;;;3.42;;
23588;SDS011;11972;48.078;11.876;2022-07-09T15:18:08;1.73;;;0.50;;
23588;SDS011;11972;48.078;11.876;2022-07-09T15:22:08;0.77;;;0.40;;
23588;SDS011;11972;48.078;11.876;2022-07-09T15:26:08;1.60;;;0.63;;
23588;SDS011;11972;48.078;11.876;2022-07-09T15:30:09;1.30;;;0.50;;
23588;SDS011;11972;48.078;11.876;2022-07-09T15:34:10;1.88;;;0.60;;
23588;SDS011;11972;48.078;11.876;2022-07-09T15:38:11;1.40;;;0.53;;
23588;SDS011;11972;48.078;11.876;2022-07-09T15:42:11;1.42;;;0.60;;
23588;SDS011;11972;48.078;11.876;2022-07-09T15:46:12;1.17;;;0.80;;
23588;SDS011;11972;48.078;11.876;2022-07-09T15:50:12;2.30;;;0.80;;
23588;SDS011;11972;48.078;11.876;2022-07-09T15:54:12;1.83;;;0.60;;
23588;SDS011;11972;48.078;11.876;2022-07-09T15:58:13;1.52;;;0.77;;
23588;SDS011;11972;48.078;11.876;2022-07-09T16:02:14;1.55;;;0.65;;
23588;SDS011;11972;48.078;11.876;2022-07-09T16:06:14;3.07;;;0.60;;
23588;SDS011;11972;48.078;11.876;2022-07-09T16:10:15;1.73;;;0.50;;
23588;SDS011;11972;48.078;11.876;2022-07-09T16:14:15;1.27;;;0.70;;
23588;SDS011;11972;48.078;11.876;2022-07-09T16:18:16;2.58;;;0.52;;
23588;SDS011;11972;48.078;11.876;2022-07-09T16:22:18;1.15;;;0.80;;
23588;SDS011;11972;48.078;11.876;2022-07-09T16:26:19;2.40;;;0.70;;
23588;SDS011;11972;48.078;11.876;2022-07-09T16:30:19;1.30;;;0.60;;
23588;SDS011;11972;48.078;11.876;2022-07-09T16:34:19;1.50;;;0.60;;
23588;SDS011;11972;48.078;11.876;2022-07-09T16:38:20;1.97;;;0.70;;
23588;SDS011;11972;48.078;11.876;2022-07-09T16:42:20;1.97;;;0.60;;
23588;SDS011;11972;48.078;11.876;2022-07-09T16:46:20;1.23;;;0.37;;
23588;SDS011;11972;48.078;11.876;2022-07-09T16:50:20;1.20;;;0.50;;
23588;SDS011;11972;48.078;11.876;2022-07-09T16:54:21;1.20;;;0.40;;
23588;SDS011;11972;48.078;11.876;2022-07-09T16:58:21;1.43;;;0.60;;
23588;SDS011;11972;48.078;11.876;2022-07-09T17:02:22;1.55;;;0.50;;
23588;SDS011;11972;48.078;11.876;2022-07-09T17:06:22;1.13;;;0.60;;
23588;SDS011;11972;48.078;11.876;2022-07-09T17:10:22;1.13;;;0.60;;
23588;SDS011;11972;48.078;11.876;2022-07-09T17:14:23;1.23;;;0.50;;
23588;SDS011;11972;48.078;11.876;2022-07-09T17:18:23;1.10;;;0.50;;
23588;SDS011;11972;48.078;11.876;2022-07-09T17:22:23;2.00;;;0.60;;
23588;SDS011;11972;48.078;11.876;2022-07-09T17:26:24;1.00;;;0.50;;
23588;SDS011;11972;48.078;11.876;2022-07-09T17:30:24;0.90;;;0.67;;
23588;SDS011;11972;48.078;11.876;2022-07-09T17:34:24;0.70;;;0.40;;
23588;SDS011;11972;48.078;11.876;2022-07-09T17:38:25;0.67;;;0.50;;
23588;SDS011;11972;48.078;11.876;2022-07-09T17:42:28;0.93;;;0.50;;
23588;SDS011;11972;48.078;11.876;2022-07-09T17:46:29;1.33;;;0.40;;
23588;SDS011;11972;48.078;11.876;2022-07-09T17:50:29;0.77;;;0.47;;
23588;SDS011;11972;48.078;11.876;2022-07-09T17:54:29;1.10;;;0.50;;
23588;SDS011;11972;48.078;11.876;2022-07-09T17:58:30;1.67;;;0.40;;
23588;SDS011;11972;48.078;11.876;2022-07-09T18:02:30;1.30;;;0.50;;
23588;SDS011;11972;48.078;11.876;2022-07-09T18:06:31;1.05;;;0.45;;
23588;SDS011;11972;48.078;11.876;2022-07-09T18:10:31;1.02;;;0.57;;
23588;SDS011;11972;48.078;11.876;2022-07-09T18:14:32;2.17;;;0.70;;
23588;SDS011;11972;48.078;11.876;2022-07-09T18:18:32;4.47;;;0.50;;
23588;SDS011;11972;48.078;11.876;2022-07-09T18:22:33;1.47;;;0.67;;
23588;SDS011;11972;48.078;11.876;2022-07-09T18:26:34;1.95;;;0.68;;
23588;SDS011;11972;48.078;11.876;2022-07-09T18:30:36;1.30;;;0.60;;
23588;SDS011;11972;48.078;11.876;2022-07-09T18:34:37;3.00;;;0.73;;
23588;SDS011;11972;48.078;11.876;2022-07-09T18:38:37;1.58;;;0.65;;
23588;SDS011;11972;48.078;11.876;2022-07-09T18:42:38;1.33;;;0.90;;
23588;SDS011;11972;48.078;11.876;2022-07-09T18:46:39;1.58;;;0.65;;
23588;SDS011;11972;48.078;11.876;2022-07-09T18:50:39;4.00;;;0.70;;
23588;SDS011;11972;48.078;11.876;2022-07-09T18:54:39;4.68;;;4.28;;
23588;SDS011;11972;48.078;11.876;2022-07-09T18:58:40;1.30;;;0.83;;
23588;SDS011;11972;48.078;11.876;2022-07-09T19:02:40;3.17;;;1.13;;
23588;SDS011;11972;48.078;11.876;2022-07-09T19:06:41;2.15;;;0.70;;
23588;SDS011;11972;48.078;11.876;2022-07-09T19:10:41;3.47;;;0.88;;
23588;SDS011;11972;48.078;11.876;2022-07-09T19:14:42;4.03;;;1.10;;
23588;SDS011;11972;48.078;11.876;2022-07-09T19:18:42;1.20;;;0.80;;
23588;SDS011;11972;48.078;11.876;2022-07-09T19:22:43;1.73;;;0.60;;
23588;SDS011;11972;48.078;11.876;2022-07-09T19:26:43;1.77;;;1.30;;
23588;SDS011;11972;48.078;11.876;2022-07-09T19:30:44;1.45;;;0.50;;
23588;SDS011;11972;48.078;11.876;2022-07-09T19:35:03;1.60;;;0.70;;
23588;SDS011;11972;48.078;11.876;2022-07-09T19:39:04;2.20;;;1.17;;
23588;SDS011;11972;48.078;11.876;2022-07-09T19:43:05;2.30;;;1.10;;
23588;SDS011;11972;48.078;11.876;2022-07-09T19:47:06;4.20;;;0.90;;
23588;SDS011;11972;48.078;11.876;2022-07-09T19:51:06;2.47;;;0.90;;
23588;SDS011;11972;48.078;11.876;2022-07-09T19:55:07;1.48;;;0.80;;
23588;SDS011;11972;48.078;11.876;2022-07-09T19:59:08;0.75;;;0.70;;
23588;SDS011;11972;48.078;11.876;2022-07-09T20:03:08;1.52;;;0.80;;
23588;SDS011;11972;48.078;11.876;2022-07-09T20:07:09;1.10;;;0.90;;
23588;SDS011;11972;48.078;11.876;2022-07-09T20:11:09;1.45;;;1.10;;
23588;SDS011;11972;48.078;11.876;2022-07-09T20:15:10;4.53;;;0.90;;
23588;SDS011;11972;48.078;11.876;2022-07-09T20:19:10;2.00;;;1.00;;
23588;SDS011;11972;48.078;11.876;2022-07-09T20:23:10;3.63;;;1.00;;
23588;SDS011;11972;48.078;11.876;2022-07-09T20:27:11;2.45;;;0.80;;
23588;SDS011;11972;48.078;11.876;2022-07-09T20:31:12;2.90;;;0.80;;
23588;SDS011;11972;48.078;11.876;2022-07-09T20:35:12;1.00;;;0.80;;
23588;SDS011;11972;48.078;11.876;2022-07-09T20:39:13;1.05;;;0.50;;
23588;SDS011;11972;48.078;11.876;2022-07-09T20:43:13;1.52;;;0.65;;
23588;SDS011;11972;48.078;11.876;2022-07-09T20:47:14;2.47;;;0.80;;
23588;SDS011;11972;48.078;11.876;2022-07-09T20:51:14;1.77;;;0.70;;
23588;SDS011;11972;48.078;11.876;2022-07-09T20:55:17;0.70;;;0.60;;
23588;SDS011;11972;48.078;11.876;2022-07-09T20:59:17;1.05;;;0.80;;
23588;SDS011;11972;48.078;11.876;2022-07-09T21:03:20;2.30;;;0.70;;
23588;SDS011;11972;48.078;11.876;2022-07-09T21:07:23;1.35;;;0.82;;
23588;SDS011;11972;48.078;11.876;2022-07-09T21:11:24;1.27;;;0.93;;
23588;SDS011;11972;48.078;11.876;2022-07-09T21:15:24;1.80;;;1.05;;
23588;SDS011;11972;48.078;11.876;2022-07-09T21:19:25;1.90;;;0.82;;
23588;SDS011;11972;48.078;11.876;2022-07-09T21:23:25;4.20;;;0.80;;
23588;SDS011;11972;48.078;11.876;2022-07-09T21:27:26;3.23;;;0.93;;
23588;SDS011;11972;48.078;11.876;2022-07-09T21:31:26;3.22;;;1.25;;
23588;SDS011;11972;48.078;11.876;2022-07-09T21:35:29;1.92;;;1.35;;
23588;SDS011;11972;48.078;11.876;2022-07-09T21:39:29;1.38;;;0.90;;
23588;SDS011;11972;48.078;11.876;2022-07-09T21:43:32;1.83;;;1.00;;
23588;SDS011;11972;48.078;11.876;2022-07-09T21:47:33;3.20;;;1.38;;
23588;SDS011;11972;48.078;11.876;2022-07-09T21:51:33;2.30;;;1.40;;
23588;SDS011;11972;48.078;11.876;2022-07-09T21:55:34;3.00;;;1.20;;
23588;SDS011;11972;48.078;11.876;2022-07-09T21:59:34;1.40;;;1.02;;
23588;SDS011;11972;48.078;11.876;2022-07-09T22:03:34;1.97;;;1.20;;
23588;SDS011;11972;48.078;11.876;2022-07-09T22:07:35;3.17;;;1.35;;
23588;SDS011;11972;48.078;11.876;2022-07-09T22:11:36;1.17;;;1.08;;
23588;SDS011;11972;48.078;11.876;2022-07-09T22:15:37;3.63;;;1.40;;
23588;SDS011;11972;48.078;11.876;2022-07-09T22:19:37;3.90;;;1.10;;
23588;SDS011;11972;48.078;11.876;2022-07-09T22:23:37;3.43;;;1.73;;
23588;SDS011;11972;48.078;11.876;2022-07-09T22:27:38;2.47;;;1.10;;
23588;SDS011;11972;48.078;11.876;2022-07-09T22:31:38;1.60;;;1.27;;
23588;SDS011;11972;48.078;11.876;2022-07-09T22:35:38;2.65;;;1.98;;
23588;SDS011;11972;48.078;11.876;2022-07-09T22:39:39;2.67;;;1.83;;
23588;SDS011;11972;48.078;11.876;2022-07-09T22:43:39;1.20;;;1.10;;
23588;SDS011;11972;48.078;11.876;2022-07-09T22:47:39;1.10;;;1.00;;
23588;SDS011;11972;48.078;11.876;2022-07-09T22:51:39;2.13;;;1.20;;
23588;SDS011;11972;48.078;11.876;2022-07-09T22:55:40;1.27;;;1.05;;
23588;SDS011;11972;48.078;11.876;2022-07-09T22:59:40;2.70;;;1.43;;
23588;SDS011;11972;48.078;11.876;2022-07-09T23:03:41;4.13;;;1.60;;
23588;SDS011;11972;48.078;11.876;2022-07-09T23:07:42;1.95;;;1.25;;
23588;SDS011;11972;48.078;11.876;2022-07-09T23:12:01;1.55;;;1.20;;
23588;SDS011;11972;48.078;11.876;2022-07-09T23:16:01;2.75;;;1.50;;
23588;SDS011;11972;48.078;11.876;2022-07-09T23:20:02;1.33;;;1.20;;
23588;SDS011;11972;48.078;11.876;2022-07-09T23:24:03;2.83;;;1.60;;
23588;SDS011;11972;48.078;11.876;2022-07-09T23:28:05;2.88;;;1.42;;
23588;SDS011;11972;48.078;11.876;2022-07-09T23:32:05;1.83;;;1.33;;
23588;SDS011;11972;48.078;11.876;2022-07-09T23:36:06;2.05;;;1.50;;
23588;SDS011;11972;48.078;11.876;2022-07-09T23:40:07;2.00;;;1.52;;
23588;SDS011;11972;48.078;11.876;2022-07-09T23:44:10;1.70;;;1.50;;
23588;SDS011;11972;48.078;11.876;2022-07-09T23:48:10;1.43;;;1.33;;
23588;SDS011;11972;48.078;11.876;2022-07-09T23:52:10;3.53;;;1.60;;